Flight Track Log - Related Links

Times and Time Zones

All times are in EDT time to prevent confusion due to time zone crossing. See the BJS336 flight status page for this flight to view local times or setup timezone preferences in your user account.


Time Position Orientation Groundspeed Altitude Reporting Facility
EDT Latitude Longitude Course Direction KTS MPH feet Rate Location/Type
Sat 11:03:38 AM 41.8000 -87.7833 240° Southwest 183 211 2,100  Level Chicago TRACON
Sat 11:04:20 AM 41.7839 -87.8214 240° Southwest 233 268 3,300 1,096 Climbing Chicago Center
Sat 11:05:22 AM 41.7322 -87.8731 217° Southwest 233 268 4,000 2,032 Climbing Chicago Center
Sat 11:06:24 AM 41.6714 -87.9344 217° Southwest 231 266 7,500 3,242 Climbing Chicago Center
Sat 11:07:26 AM 41.6114 -87.9878 214° Southwest 256 295 10,700 2,829 Climbing Chicago Center
Sat 11:08:27 AM 41.5422 -88.0517 215° Southwest 299 344 13,300 2,683 Climbing Chicago Center
Sat 11:09:29 AM 41.4703 -88.1194 215° Southwest 323 372 16,200 3,242 Climbing Chicago Center
Sat 11:10:31 AM 41.3775 -88.1931 211° Southwest 337 388 20,000 2,855 Climbing Chicago Center
Sat 11:11:33 AM 41.2900 -88.2325 199° South 338 389 22,100 1,790 Climbing Chicago Center
Sat 11:12:35 AM 41.1964 -88.2742 199° South 355 409 23,700 1,548 Climbing Chicago Center
Sat 11:13:37 AM 41.0964 -88.3200 199° South 376 433 25,300 1,500 Climbing Chicago Center
Sat 11:14:39 AM 40.9981 -88.3733 202° Southwest 384 442 26,800 1,659 Climbing Chicago Center
Sat 11:15:40 AM 40.9269 -88.5228 238° Southwest 396 456 28,700 1,707 Climbing Chicago Center
Sat 11:16:42 AM 40.8703 -88.6483 239° Southwest 400 460 30,300 1,355 Climbing Chicago Center
Sat 11:17:44 AM 40.8125 -88.7744 239° Southwest 401 461 31,500 1,065 Climbing Chicago Center
Sat 11:18:46 AM 40.7517 -88.9069 239° Southwest 413 475 32,500 968 Climbing Chicago Center
Sat 11:19:48 AM 40.6903 -89.0372 238° Southwest 415 478 33,500 968 Climbing Chicago Center
Sat 11:20:50 AM 40.6292 -89.1678 238° Southwest 417 480 34,500 968 Climbing Chicago Center
Sat 11:21:52 AM 40.5678 -89.2983 238° Southwest 417 480 35,500 919 Climbing Chicago Center
Sat 11:22:54 AM 40.5069 -89.4244 238° Southwest 407 468 36,400 683 Climbing Chicago Center
Sat 11:23:55 AM 40.4475 -89.5519 239° Southwest 406 467 36,900 537 Climbing Chicago Center
Sat 11:24:57 AM 40.3753 -89.7042 238° Southwest 407 468 37,500 532 Climbing Chicago Center
Sat 11:25:59 AM 40.3156 -89.8286 238° Southwest 401 461 38,000 256 Climbing Chicago Center
Sat 11:26:54 AM 40.2675 -89.9314 239° Southwest 404 465 38,000  Level Kansas City Center
Sat 11:27:56 AM 40.2067 -90.0589 238° Southwest 408 470 38,000  Level Kansas City Center
Sat 11:28:58 AM 40.1433 -90.1892 238° Southwest 418 481 38,000  Level Kansas City Center
Sat 11:30:00 AM 40.0672 -90.3503 238° Southwest 429 494 38,000  Level Kansas City Center
Sat 11:31:02 AM 40.0014 -90.4856 238° Southwest 435 501 38,000  Level Kansas City Center
Sat 11:32:04 AM 39.9344 -90.6211 237° Southwest 442 509 38,000  Level Kansas City Center
Sat 11:33:06 AM 39.8683 -90.7564 238° Southwest 443 510 38,000  Level Kansas City Center
Sat 11:34:08 AM 39.8006 -90.8939 237° Southwest 447 514 38,000  Level Kansas City Center
Sat 11:35:10 AM 39.7292 -91.0406 238° Southwest 445 512 38,000  Level Kansas City Center
Sat 11:36:12 AM 39.6989 -91.1903 255° West 436 502 38,000  Level Kansas City Center
Sat 11:37:14 AM 39.6831 -91.3469 263° West 431 496 38,000  Level Kansas City Center
Sat 11:38:16 AM 39.6653 -91.5011 262° West 432 497 38,000  Level Kansas City Center
Sat 11:39:18 AM 39.6508 -91.6528 263° West 431 496 38,000  Level Kansas City Center
Sat 11:40:20 AM 39.6306 -91.8356 262° West 429 494 38,000  Level Kansas City Center
Sat 11:41:22 AM 39.6142 -91.9869 262° West 427 491 38,000  Level Kansas City Center
Sat 11:42:24 AM 39.5989 -92.1347 262° West 420 483 38,000  Level Kansas City Center
Sat 11:43:26 AM 39.5831 -92.2828 262° West 417 480 38,000  Level Kansas City Center
Sat 11:44:28 AM 39.5669 -92.4322 262° West 419 482 38,000  Level Kansas City Center
Sat 11:45:30 AM 39.5467 -92.6108 262° West 419 482 38,000  Level Kansas City Center
Sat 11:46:32 AM 39.5297 -92.7567 261° West 415 478 38,000  Level Kansas City Center
Sat 11:47:34 AM 39.5128 -92.9053 262° West 417 480 38,000  Level Kansas City Center
Sat 11:48:36 AM 39.4958 -93.0506 261° West 413 475 38,000  Level Kansas City Center
Sat 11:49:38 AM 39.4789 -93.1939 261° West 409 471 38,000  Level Kansas City Center
Sat 11:50:40 AM 39.4611 -93.3386 261° West 409 471 38,000  Level Kansas City Center
Sat 11:51:42 AM 39.4403 -93.5119 261° West 410 472 38,000  Level Kansas City Center
Sat 11:52:44 AM 39.4231 -93.6572 261° West 410 472 38,000  Level Kansas City Center
Sat 11:53:46 AM 39.4053 -93.8031 261° West 409 471 38,000  Level Kansas City Center
Sat 11:54:48 AM 39.3853 -93.9644 261° West 409 471 38,000  Level Kansas City Center
Sat 11:55:50 AM 39.3686 -94.1022 261° West 406 467 38,000  Level Kansas City Center
Sat 11:56:52 AM 39.3511 -94.2411 261° West 408 470 38,000  Level Kansas City Center
Sat 11:57:54 AM 39.3300 -94.4039 261° West 410 472 38,000  Level Kansas City Center
Sat 11:58:56 AM 39.3125 -94.5417 261° West 408 470 38,000  Level Kansas City Center
Sat 11:59:58 AM 39.2900 -94.7058 260° West 413 475 38,000  Level Kansas City Center
Sat 12:01:00 PM 39.2878 -94.8461 269° West 412 474 38,000  Level Kansas City Center
Sat 12:02:02 PM 39.2908 -95.0083 271° West 402 463 38,000  Level Kansas City Center
Sat 12:03:04 PM 39.2933 -95.1567 271° West 402 463 38,000  Level Kansas City Center
Sat 12:04:06 PM 39.2958 -95.3125 271° West 403 464 38,000  Level Kansas City Center
Sat 12:05:08 PM 39.2986 -95.4544 271° West 398 458 38,000  Level Kansas City Center
Sat 12:06:10 PM 39.2994 -95.5931 270° West 394 453 38,000  Level Kansas City Center
Sat 12:07:12 PM 39.3011 -95.7494 271° West 392 451 38,000  Level Kansas City Center
Sat 12:08:14 PM 39.3019 -95.8836 271° West 391 450 38,000  Level Kansas City Center
Sat 12:09:16 PM 39.3033 -96.0414 271° West 393 452 38,000  Level Kansas City Center
Sat 12:10:18 PM 39.3039 -96.1772 270° West 392 451 38,000  Level Kansas City Center
Sat 12:11:20 PM 39.3044 -96.3172 270° West 392 451 38,000  Level Kansas City Center
Sat 12:12:22 PM 39.3047 -96.4589 270° West 394 453 38,000  Level Kansas City Center
Sat 12:13:24 PM 39.3056 -96.6061 270° West 397 457 38,000  Level Kansas City Center
Sat 12:14:26 PM 39.3061 -96.7658 270° West 399 459 38,000  Level Kansas City Center
Sat 12:15:28 PM 39.3064 -96.9050 270° West 404 465 38,000 129 Level Kansas City Center
Sat 12:17:32 PM 39.3056 -97.2025 270° West 401 461 38,400 290 Climbing Kansas City Center
Sat 12:18:34 PM 39.3064 -97.3603 270° West 396 456 38,900 484 Climbing Kansas City Center
Sat 12:19:36 PM 39.3053 -97.4950 269° West 394 453 39,400 484 Climbing Kansas City Center
Sat 12:20:38 PM 39.3047 -97.6475 270° West 390 449 39,900 290 Climbing Kansas City Center
Sat 12:21:40 PM 39.3033 -97.7878 269° West 391 450 40,000 48 Climbing Kansas City Center
Sat 12:22:43 PM 39.3031 -97.9419 270° West 387 445 40,000  Level Kansas City Center
Sat 12:23:45 PM 39.3017 -98.0792 269° West 396 456 40,000  Level Kansas City Center
Sat 12:24:47 PM 39.2992 -98.2158 269° West 403 464 40,000  Level Kansas City Center
Sat 12:25:49 PM 39.2981 -98.3925 270° West 408 470 40,000  Level Kansas City Center
Sat 12:26:51 PM 39.2953 -98.5414 269° West 414 476 40,000  Level Kansas City Center
Sat 12:27:53 PM 39.2942 -98.6889 269° West 410 472 40,000  Level Kansas City Center
Sat 12:28:55 PM 39.2931 -98.8317 269° West 415 478 40,000  Level Kansas City Center
Sat 12:29:57 PM 39.2894 -98.9933 268° West 426 490 40,000  Level Kansas City Center
Sat 12:30:59 PM 39.2883 -99.1428 269° West 420 483 40,000  Level Kansas City Center
Sat 12:32:01 PM 39.2869 -99.2936 269° West 421 484 40,000  Level Kansas City Center
Sat 12:33:03 PM 39.2869 -99.4447 270° West 422 486 40,000  Level Kansas City Center
Sat 12:34:05 PM 39.2867 -99.6300 270° West 422 486 40,000  Level Kansas City Center
Sat 12:35:07 PM 39.2842 -99.7678 269° West 426 490 40,000  Level Denver Center
Sat 12:36:09 PM 39.2831 -99.9364 270° West 422 486 40,000  Level Denver Center
Sat 12:37:11 PM 39.2811 -100.0836 269° West 428 493 40,000  Level Denver Center
Sat 12:38:13 PM 39.2794 -100.2550 269° West 427 491 40,000  Level Denver Center
Sat 12:39:15 PM 39.2775 -100.4003 269° West 424 488 40,000  Level Denver Center
Sat 12:40:17 PM 39.2750 -100.5731 269° West 429 494 40,000  Level Denver Center
Sat 12:41:18 PM 39.2728 -100.6961 269° West 431 496 40,000  Level Denver Center
Sat 12:42:20 PM 39.2708 -100.8436 269° West 430 495 40,000  Level Denver Center
Sat 12:43:23 PM 39.2669 -101.0383 269° West 427 491 40,000  Level Denver Center
Sat 12:44:25 PM 39.2636 -101.2100 269° West 429 494 40,000  Level Denver Center
Sat 12:45:27 PM 39.2608 -101.3583 269° West 430 495 40,000  Level Denver Center
Sat 12:46:42 PM 39.2569 -101.5292 268° West 428 493 40,000  Level Denver Center
Sat 12:47:44 PM 39.2519 -101.7019 268° West 429 494 40,000  Level Denver Center
Sat 12:48:45 PM 39.2500 -101.8250 269° West 431 496 40,000  Level Denver Center
Sat 12:49:47 PM 39.2450 -101.9983 268° West 433 498 40,000  Level Denver Center
Sat 12:50:50 PM 39.2403 -102.1953 268° West 431 496 40,000  Level Denver Center
Sat 12:51:52 PM 39.2386 -102.3436 269° West 433 498 40,000  Level Denver Center
Sat 12:52:54 PM 39.2425 -102.5133 272° West 425 489 40,000  Level Denver Center
Sat 12:53:56 PM 39.2458 -102.6600 272° West 429 494 40,000  Level Denver Center
Sat 12:54:58 PM 39.2494 -102.8039 272° West 426 490 40,000  Level Denver Center
Sat 12:56:00 PM 39.2519 -102.9864 271° West 426 490 40,000  Level Denver Center
Sat 12:57:02 PM 39.2553 -103.1386 272° West 425 489 40,000  Level Denver Center
Sat 12:58:05 PM 39.2578 -103.2922 271° West 428 493 40,000  Level Denver Center
Sat 12:59:07 PM 39.2594 -103.4450 271° West 428 493 40,000  Level Denver Center
Sat 01:00:09 PM 39.2617 -103.5997 271° West 432 497 40,000  Level Denver Center
Sat 01:01:11 PM 39.2639 -103.7536 271° West 430 495 40,000  Level Denver Center
Sat 01:02:13 PM 39.2856 -103.9356 279° West 430 495 40,000  Level Denver Center
Sat 01:03:15 PM 39.3164 -104.0808 285° West 421 484 40,000  Level Denver Center
Sat 01:04:17 PM 39.3481 -104.2289 286° West 425 489 40,000  Level Denver Center
Sat 01:05:19 PM 39.3803 -104.3731 286° West 416 479 40,000  Level Denver Center
Sat 01:06:21 PM 39.4128 -104.5192 286° West 417 480 40,000  Level Denver Center
Sat 01:07:23 PM 39.4447 -104.6639 286° West 413 475 40,000  Level Denver Center
Sat 01:08:25 PM 39.4756 -104.8142 285° West 431 496 40,000  Level Denver Center
Sat 01:09:27 PM 39.5092 -104.9606 287° West 416 479 40,000  Level Denver Center
Sat 01:10:42 PM 39.5339 -105.1661 279° West 411 473 40,000  Level Denver Center
Sat 01:11:44 PM 39.5417 -105.3156 274° West 414 476 40,000  Level Denver Center
Sat 01:12:46 PM 39.5506 -105.4672 274° West 422 486 40,000  Level Denver Center
Sat 01:13:48 PM 39.5586 -105.6172 274° West 421 484 40,000  Level Denver Center
Sat 01:14:50 PM 39.5539 -105.7706 268° West 423 487 40,000  Level Denver Center
Sat 01:15:52 PM 39.5500 -105.9531 268° West 422 486 40,000  Level Denver Center
Sat 01:16:54 PM 39.5461 -106.1078 268° West 430 495 40,000  Level Denver Center
Sat 01:17:56 PM 39.5414 -106.2672 268° West 430 495 40,000  Level Denver Center
Sat 01:18:58 PM 39.5369 -106.4206 268° West 428 493 40,000  Level Denver Center
Sat 01:20:00 PM 39.5322 -106.5653 268° West 424 488 40,000  Level Denver Center
Sat 01:21:14 PM 39.5264 -106.7358 268° West 428 493 40,000  Level Denver Center
Sat 01:22:17 PM 39.5144 -106.9325 266° West 429 494 40,000  Level Denver Center
Sat 01:23:19 PM 39.5117 -107.0819 269° West 436 502 40,000  Level Denver Center
Sat 01:24:21 PM 39.5047 -107.2542 267° West 433 498 40,000  Level Denver Center
Sat 01:25:23 PM 39.4992 -107.4050 267° West 435 501 40,000  Level Denver Center
Sat 01:26:25 PM 39.4925 -107.5806 267° West 437 503 40,000  Level Denver Center
Sat 01:27:27 PM 39.4864 -107.7322 267° West 439 505 40,000  Level Denver Center
Sat 01:28:29 PM 39.4797 -107.8836 267° West 440 506 40,000  Level Denver Center
Sat 01:29:43 PM 39.4714 -108.0642 267° West 446 513 40,000  Level Denver Center
Sat 01:30:46 PM 39.4611 -108.2700 266° West 447 514 40,000  Level Denver Center
Sat 01:31:48 PM 39.4531 -108.4244 266° West 438 504 40,000  Level Denver Center
Sat 01:32:50 PM 39.4439 -108.5817 266° West 449 517 40,000  Level Denver Center
Sat 01:33:52 PM 39.4336 -108.7678 266° West 454 522 40,000  Level Denver Center
Sat 01:34:46 PM 39.4272 -108.9006 266° West 458 527 40,000  Level Salt Lake Center
Sat 01:35:48 PM 39.4178 -109.0847 266° West 456 525 40,000  Level Salt Lake Center
Sat 01:36:58 PM 39.4078 -109.2681 266° West 454 522 40,000  Level Denver Center
Sat 01:37:52 PM 39.3989 -109.4253 266° West 457 526 40,000  Level Salt Lake Center
Sat 01:38:54 PM 39.3894 -109.5814 266° West 455 524 40,000  Level Salt Lake Center
Sat 01:39:56 PM 39.3803 -109.7381 266° West 457 526 40,000  Level Salt Lake Center
Sat 01:40:58 PM 39.3692 -109.9217 266° West 458 527 40,000  Level Salt Lake Center
Sat 01:42:00 PM 39.3594 -110.0764 265° West 454 522 40,000  Level Salt Lake Center
Sat 01:43:02 PM 39.3475 -110.2592 265° West 457 526 40,000  Level Salt Lake Center
Sat 01:44:04 PM 39.3367 -110.4139 265° West 453 521 40,000  Level Salt Lake Center
Sat 01:45:06 PM 39.3247 -110.5967 265° West 457 526 40,000  Level Salt Lake Center
Sat 01:46:08 PM 39.3142 -110.7514 265° West 454 522 40,000  Level Salt Lake Center
Sat 01:47:10 PM 39.3022 -110.9336 265° West 455 524 40,000  Level Salt Lake Center
Sat 01:48:12 PM 39.2892 -111.0881 264° West 455 524 40,000  Level Salt Lake Center
Sat 01:49:14 PM 39.2767 -111.2694 265° West 454 522 40,000  Level Salt Lake Center
Sat 01:50:16 PM 39.2656 -111.4153 264° West 449 517 40,000  Level Salt Lake Center
Sat 01:51:18 PM 39.2533 -111.5772 264° West 452 520 40,000  Level Salt Lake Center
Sat 01:52:20 PM 39.2381 -111.7681 264° West 448 516 40,000  Level Salt Lake Center
Sat 01:53:22 PM 39.2253 -111.9250 264° West 451 519 40,000  Level Salt Lake Center
Sat 01:54:24 PM 39.2122 -112.0864 264° West 454 522 40,000  Level Salt Lake Center
Sat 01:55:26 PM 39.1986 -112.2486 264° West 456 525 40,000  Level Salt Lake Center
Sat 01:56:28 PM 39.1850 -112.4108 264° West 458 527 40,000  Level Salt Lake Center
Sat 01:57:30 PM 39.1675 -112.6056 263° West 458 527 40,000  Level Salt Lake Center
Sat 01:58:32 PM 39.1533 -112.7683 264° West 460 529 40,000  Level Salt Lake Center
Sat 01:59:34 PM 39.1381 -112.9317 263° West 462 532 40,000  Level Salt Lake Center
Sat 02:00:36 PM 39.1239 -113.0953 264° West 462 532 40,000  Level Salt Lake Center
Sat 02:01:38 PM 39.1092 -113.2586 263° West 462 532 40,000  Level Salt Lake Center
Sat 02:02:40 PM 39.0925 -113.4208 263° West 461 531 40,000  Level Salt Lake Center
Sat 02:03:42 PM 39.0742 -113.6164 263° West 461 531 40,000  Level Salt Lake Center
Sat 02:04:44 PM 39.0586 -113.7797 263° West 463 533 40,000  Level Salt Lake Center
Sat 02:05:46 PM 39.0431 -113.9425 263° West 462 532 40,000  Level Salt Lake Center
Sat 02:06:48 PM 39.0261 -114.1064 262° West 465 535 40,000  Level Salt Lake Center
Sat 02:07:50 PM 39.0094 -114.2697 263° West 464 534 40,000  Level Salt Lake Center
Sat 02:08:52 PM 38.9933 -114.4306 263° West 458 527 40,000  Level Salt Lake Center
Sat 02:09:54 PM 38.9742 -114.6222 263° West 453 521 40,000  Level Salt Lake Center
Sat 02:10:56 PM 38.9564 -114.7800 262° West 450 518 40,000  Level Salt Lake Center
Sat 02:11:58 PM 38.9400 -114.9375 262° West 447 514 40,000  Level Salt Lake Center
Sat 02:13:00 PM 38.9228 -115.0936 262° West 444 511 40,000  Level Salt Lake Center
Sat 02:14:02 PM 38.9050 -115.2506 262° West 444 511 40,000  Level Salt Lake Center
Sat 02:15:04 PM 38.8853 -115.4292 262° West 445 512 40,000  Level Salt Lake Center
Sat 02:16:06 PM 38.8661 -115.5861 261° West 446 513 40,000  Level Salt Lake Center
Sat 02:17:08 PM 38.8492 -115.7428 262° West 445 512 40,000  Level Salt Lake Center
Sat 02:18:11 PM 38.8317 -115.8992 262° West 443 510 40,000  Level Salt Lake Center
Sat 02:19:13 PM 38.8125 -116.0558 261° West 446 513 40,000  Level Salt Lake Center
Sat 02:20:15 PM 38.7908 -116.2442 262° West 446 513 40,000  Level Salt Lake Center
Sat 02:21:21 PM 38.7719 -116.4014 261° West 449 517 40,000  Level Oakland Center
Sat 02:22:23 PM 38.7525 -116.5592 261° West 450 518 40,000  Level Oakland Center
Sat 02:23:21 PM 38.7339 -116.7164 261° West 450 518 40,000  Level Salt Lake Center
Sat 02:24:26 PM 38.7100 -116.9036 261° West 448 516 40,000  Level Oakland Center
Sat 02:25:28 PM 38.6911 -117.0611 261° West 449 517 40,000  Level Oakland Center
Sat 02:26:27 PM 38.6706 -117.2164 260° West 448 516 40,000  Level Salt Lake Center
Sat 02:27:29 PM 38.6511 -117.3719 261° West 447 514 40,000 -286 Level Salt Lake Center
Sat 02:28:33 PM 38.6308 -117.5281 261° West 446 513 39,400 -768 Descending Oakland Center
Sat 02:29:34 PM 38.6103 -117.6842 260° West 448 516 38,400 -1,073 Descending Oakland Center
Sat 02:30:36 PM 38.5864 -117.8708 261° West 447 514 37,200 -683 Descending Oakland Center
Sat 02:31:37 PM 38.5831 -118.0283 268° West 448 516 37,000 -537 Descending Oakland Center
Sat 02:32:39 PM 38.6331 -118.1858 292° West 454 522 36,100 -1,403 Descending Oakland Center
Sat 02:33:41 PM 38.6964 -118.3236 301° West 449 517 34,100 -1,951 Descending Oakland Center
Sat 02:34:42 PM 38.7581 -118.4597 300° West 442 509 32,100 -1,805 Descending Oakland Center
Sat 02:35:44 PM 38.8178 -118.5956 299° West 437 503 30,400 -1,790 Descending Oakland Center
Sat 02:36:46 PM 38.8797 -118.7344 300° West 446 513 28,400 -1,951 Descending Oakland Center
Sat 02:37:47 PM 38.9442 -118.8803 300° West 464 534 26,400 -1,951 Descending Oakland Center
Sat 02:38:49 PM 39.0200 -119.0122 307° West 459 528 24,400 -1,935 Descending Oakland Center
Sat 02:39:51 PM 39.1103 -119.1247 316° Northwest 449 517 22,400 -1,951 Descending Oakland Center
Sat 02:40:52 PM 39.1961 -119.2319 316° Northwest 431 496 20,400 -1,902 Descending Oakland Center
Sat 02:41:54 PM 39.2761 -119.3314 316° Northwest 401 461 18,500 -1,756 Descending Oakland Center
Sat 02:42:55 PM 39.3608 -119.4381 316° Northwest 359 413 16,800 -1,854 Descending Oakland Center
Sat 02:43:57 PM 39.4297 -119.5225 317° Northwest 344 396 14,700 -2,098 Descending Oakland Center
Sat 02:44:58 PM 39.4900 -119.6008 315° West 318 366 12,500 -1,951 Descending Oakland Center
Sat 02:46:00 PM 39.5431 -119.6694 315° West 282 325 10,700 -1,597 Descending Oakland Center
Sat 02:47:02 PM 39.6203 -119.6786 355° North 273 314 9,200 -1,415 Descending Oakland Center
Sat 02:48:03 PM 39.6344 -119.7494 285° West 244 281 7,800 -1,547 Descending Oakland Center
Sat 02:49:10 PM 39.5667 -119.7667 191° South 195 224 5,900 -1,465 Descending Northern Cal TRACON
Sat 02:50:10 PM 39.5167 -119.7667 180° South 162 186 4,700 -1,200 Descending Northern Cal TRACON
Sat 02:52:00 PM 39.4991 -119.7681 180° South  Level Estimated

Login

Don't have an account? Register now (free) for customized features, flight alerts, and more!